Time;durP1;ratioP1;P1;durP2;ratioP2;P2;SDS_P1;SDS_P2;PMS_P1;PMS_P2;Temp;Humidity;BMP_temperature;BMP_pressure;BME280_temperature;BME280_humidity;BME280_pressure;Samples;Min_cycle;Max_cycle;Signal;HPM_P1;HPM_P2
2023/06/24 00:02:04;;;;;;;2.90;2.60;;;;;;;;;;7299140;19;141773;-75
2023/06/24 00:04:31;;;;;;;2.90;2.60;;;;;;;;;;7300748;19;141396;-76
2023/06/24 00:06:59;;;;;;;2.70;2.47;;;;;;;;;;7300428;19;140892;-75
2023/06/24 00:09:27;;;;;;;2.70;2.47;;;;;;;;;;7300120;19;140886;-76
2023/06/24 00:11:55;;;;;;;2.90;2.63;;;;;;;;;;7298763;19;142120;-76
2023/06/24 00:14:24;;;;;;;2.88;2.50;;;;;;;;;;7298389;19;142242;-76
2023/06/24 00:16:51;;;;;;;3.00;2.70;;;;;;;;;;7300794;19;140676;-76
2023/06/24 00:19:22;;;;;;;6.20;3.03;;;;;;;;;;7300255;19;140553;-76
2023/06/24 00:21:51;;;;;;;3.05;2.75;;;;;;;;;;7299956;19;140985;-76
2023/06/24 00:24:19;;;;;;;2.95;2.65;;;;;;;;;;7298955;19;141855;-76
2023/06/24 00:26:46;;;;;;;8.32;3.10;;;;;;;;;;7299867;19;140663;-76
2023/06/24 00:29:15;;;;;;;2.90;2.70;;;;;;;;;;7300139;19;140803;-75
2023/06/24 00:31:42;;;;;;;4.07;3.05;;;;;;;;;;7299785;19;140597;-76
2023/06/24 00:34:09;;;;;;;3.30;3.00;;;;;;;;;;7301001;19;140758;-76
2023/06/24 00:36:37;;;;;;;2.63;2.42;;;;;;;;;;7307734;19;140840;-76
2023/06/24 00:39:05;;;;;;;2.90;2.65;;;;;;;;;;7306808;19;141736;-76
2023/06/24 00:41:33;;;;;;;3.20;2.90;;;;;;;;;;7306554;19;141556;-75
2023/06/24 00:44:00;;;;;;;3.30;2.95;;;;;;;;;;7306544;19;141865;-76
2023/06/24 00:46:28;;;;;;;3.38;3.08;;;;;;;;;;7305229;19;140597;-75
2023/06/24 00:48:55;;;;;;;3.22;2.50;;;;;;;;;;7305745;19;140580;-76
2023/06/24 00:51:33;;;;;;;3.15;2.72;;;;;;;;;;7305288;19;141388;-76
2023/06/24 00:54:00;;;;;;;3.08;2.78;;;;;;;;;;7305465;19;141923;-76
2023/06/24 00:56:33;;;;;;;3.28;2.90;;;;;;;;;;7305300;19;140885;-75
2023/06/24 00:59:02;;;;;;;3.00;2.70;;;;;;;;;;7305906;19;140377;-76
2023/06/24 01:01:33;;;;;;;3.58;2.85;;;;;;;;;;7306130;19;140410;-76
2023/06/24 01:04:01;;;;;;;3.47;3.13;;;;;;;;;;7307912;19;140785;-76
2023/06/24 01:06:29;;;;;;;2.90;2.65;;;;;;;;;;7305555;19;140521;-76
2023/06/24 01:09:02;;;;;;;3.20;2.85;;;;;;;;;;7305411;19;140917;-75
2023/06/24 01:11:30;;;;;;;3.30;2.90;;;;;;;;;;7305628;19;141052;-76
2023/06/24 01:13:57;;;;;;;3.10;2.80;;;;;;;;;;7305245;19;142895;-76
2023/06/24 01:16:50;;;;;;;3.38;3.00;;;;;;;;;;7305029;19;140629;-76
2023/06/24 01:19:38;;;;;;;4.07;3.15;;;;;;;;;;7305805;19;140639;-76
2023/06/24 01:22:23;;;;;;;3.45;3.15;;;;;;;;;;7305420;19;142143;-75
2023/06/24 01:25:09;;;;;;;3.60;3.30;;;;;;;;;;7303888;19;141379;-74
2023/06/24 01:27:41;;;;;;;3.15;2.80;;;;;;;;;;7305956;19;140771;-76
2023/06/24 01:30:15;;;;;;;4.20;3.00;;;;;;;;;;7304324;19;140493;-75
2023/06/24 01:32:48;;;;;;;3.40;2.97;;;;;;;;;;7304418;19;141881;-76
2023/06/24 01:35:20;;;;;;;3.08;2.78;;;;;;;;;;7304922;19;141905;-77
2023/06/24 01:37:52;;;;;;;3.70;3.25;;;;;;;;;;7304993;19;141225;-77
2023/06/24 01:40:26;;;;;;;3.22;2.92;;;;;;;;;;7304498;19;140504;-77
2023/06/24 01:42:54;;;;;;;3.47;2.95;;;;;;;;;;7304319;19;140760;-77
2023/06/24 01:45:23;;;;;;;3.63;3.17;;;;;;;;;;7303688;19;142582;-75
2023/06/24 01:47:55;;;;;;;3.40;2.90;;;;;;;;;;7302910;19;140640;-76
2023/06/24 01:50:24;;;;;;;3.85;3.22;;;;;;;;;;7304579;19;140670;-77
2023/06/24 01:52:52;;;;;;;3.25;2.83;;;;;;;;;;7303861;19;141850;-77
2023/06/24 01:55:20;;;;;;;3.30;3.00;;;;;;;;;;7301841;19;143072;-77
2023/06/24 01:57:49;;;;;;;3.50;3.20;;;;;;;;;;7302660;19;140551;-76
2023/06/24 02:00:16;;;;;;;3.92;3.10;;;;;;;;;;7304519;19;140563;-77
2023/06/24 02:02:44;;;;;;;3.50;3.15;;;;;;;;;;7303865;19;141817;-76
2023/06/24 02:05:12;;;;;;;3.53;3.10;;;;;;;;;;7302773;19;141967;-77
2023/06/24 02:07:41;;;;;;;3.33;3.03;;;;;;;;;;7303967;19;140876;-76
2023/06/24 02:10:08;;;;;;;3.38;3.03;;;;;;;;;;7302948;19;140710;-77
2023/06/24 02:12:36;;;;;;;3.67;3.05;;;;;;;;;;7303632;19;141957;-77
2023/06/24 02:15:06;;;;;;;3.30;3.00;;;;;;;;;;7303219;19;141848;-77
2023/06/24 02:17:34;;;;;;;3.35;3.05;;;;;;;;;;7303571;19;140625;-76
2023/06/24 02:20:02;;;;;;;4.10;3.22;;;;;;;;;;7303982;19;140553;-76
2023/06/24 02:22:29;;;;;;;3.92;2.88;;;;;;;;;;7301934;19;141694;-77
2023/06/24 02:24:56;;;;;;;3.30;3.00;;;;;;;;;;7302218;19;142163;-76
2023/06/24 02:27:23;;;;;;;3.30;3.00;;;;;;;;;;7301775;19;140506;-76
2023/06/24 02:29:54;;;;;;;3.40;3.10;;;;;;;;;;7303066;19;141145;-76
2023/06/24 02:32:21;;;;;;;3.58;3.17;;;;;;;;;;7302868;19;140640;-77
2023/06/24 02:34:48;;;;;;;3.50;3.20;;;;;;;;;;7300977;19;141903;-76
2023/06/24 02:37:15;;;;;;;3.38;3.08;;;;;;;;;;7301727;19;140798;-76
2023/06/24 02:39:44;;;;;;;3.33;3.03;;;;;;;;;;7297316;19;140906;-77
2023/06/24 02:42:11;;;;;;;3.40;3.10;;;;;;;;;;7300734;19;141334;-77
2023/06/24 02:44:39;;;;;;;3.47;3.00;;;;;;;;;;7300991;19;142474;-77
2023/06/24 02:47:07;;;;;;;3.45;3.15;;;;;;;;;;7302622;19;140728;-76
2023/06/24 02:49:35;;;;;;;3.30;3.00;;;;;;;;;;7301760;19;140607;-76
2023/06/24 02:52:02;;;;;;;4.38;3.20;;;;;;;;;;7305512;19;140869;-76
2023/06/24 02:54:29;;;;;;;3.40;3.10;;;;;;;;;;7301222;19;142715;-76
2023/06/24 02:56:57;;;;;;;3.22;2.92;;;;;;;;;;7299295;19;140785;-77
2023/06/24 02:59:27;;;;;;;3.30;3.00;;;;;;;;;;7302200;19;140772;-76
2023/06/24 03:01:54;;;;;;;3.58;3.25;;;;;;;;;;7301739;19;141305;-76
2023/06/24 03:04:21;;;;;;;3.88;3.47;;;;;;;;;;7301381;19;142031;-76
2023/06/24 03:06:49;;;;;;;3.53;3.13;;;;;;;;;;7300379;19;140611;-76
2023/06/24 03:09:17;;;;;;;3.47;2.90;;;;;;;;;;7301313;19;142301;-76
2023/06/24 03:11:44;;;;;;;3.40;2.97;;;;;;;;;;7301413;19;141468;-76
2023/06/24 03:14:11;;;;;;;3.35;3.05;;;;;;;;;;7300705;19;140806;-76
2023/06/24 03:16:38;;;;;;;3.35;3.05;;;;;;;;;;7300912;19;140470;-77
2023/06/24 03:19:05;;;;;;;3.40;3.10;;;;;;;;;;7300192;19;140992;-76
2023/06/24 03:21:33;;;;;;;3.45;2.95;;;;;;;;;;7301467;19;141540;-76
2023/06/24 03:24:00;;;;;;;3.70;3.08;;;;;;;;;;7301089;19;141857;-76
2023/06/24 03:26:40;;;;;;;3.63;3.20;;;;;;;;;;7301026;19;140691;-77
2023/06/24 03:29:07;;;;;;;3.47;3.17;;;;;;;;;;7301119;19;140785;-76
2023/06/24 03:31:34;;;;;;;3.53;3.22;;;;;;;;;;7298906;19;141482;-76
2023/06/24 03:34:01;;;;;;;3.67;3.10;;;;;;;;;;7300647;19;142120;-76
2023/06/24 03:36:28;;;;;;;3.97;3.50;;;;;;;;;;7301104;19;140769;-76
2023/06/24 03:38:55;;;;;;;4.05;3.33;;;;;;;;;;7301048;19;140737;-76
2023/06/24 03:41:22;;;;;;;2.97;2.78;;;;;;;;;;7300255;19;140965;-76
2023/06/24 03:43:50;;;;;;;3.58;3.28;;;;;;;;;;7299703;19;142564;-76
2023/06/24 03:46:17;;;;;;;4.63;3.30;;;;;;;;;;7301507;19;140375;-77
2023/06/24 03:48:44;;;;;;;3.83;3.05;;;;;;;;;;7301071;19;140630;-76
2023/06/24 03:51:11;;;;;;;4.07;3.50;;;;;;;;;;7299979;19;141085;-75
2023/06/24 03:53:38;;;;;;;3.45;3.15;;;;;;;;;;7300600;19;141877;-75
2023/06/24 03:56:05;;;;;;;3.40;3.10;;;;;;;;;;7299413;19;140393;-76
2023/06/24 03:58:33;;;;;;;3.50;3.20;;;;;;;;;;7300217;19;140575;-76
2023/06/24 04:01:00;;;;;;;4.20;3.80;;;;;;;;;;7299256;19;140671;-74
2023/06/24 04:03:27;;;;;;;4.53;3.63;;;;;;;;;;7299555;19;142709;-75
2023/06/24 04:05:55;;;;;;;3.92;3.58;;;;;;;;;;7297862;19;140904;-75
2023/06/24 04:08:25;;;;;;;4.38;3.83;;;;;;;;;;7299153;19;140442;-76
2023/06/24 04:10:52;;;;;;;4.43;4.03;;;;;;;;;;7305370;19;141197;-75
2023/06/24 04:13:19;;;;;;;4.50;3.78;;;;;;;;;;7305977;19;141549;-75
2023/06/24 04:15:46;;;;;;;3.97;3.58;;;;;;;;;;7306084;19;140896;-76
2023/06/24 04:18:14;;;;;;;3.65;3.15;;;;;;;;;;7306133;19;140624;-75
2023/06/24 04:20:41;;;;;;;3.95;3.45;;;;;;;;;;7305746;19;141798;-75
2023/06/24 04:23:10;;;;;;;4.15;3.75;;;;;;;;;;7306187;19;140822;-75
2023/06/24 04:25:37;;;;;;;4.15;3.50;;;;;;;;;;7305262;19;140751;-75
2023/06/24 04:28:04;;;;;;;4.93;4.03;;;;;;;;;;7306425;19;140570;-75
2023/06/24 04:30:32;;;;;;;4.47;4.07;;;;;;;;;;7305944;19;141751;-75
2023/06/24 04:32:59;;;;;;;3.90;3.50;;;;;;;;;;7305439;19;142810;-75
2023/06/24 04:35:26;;;;;;;4.55;3.60;;;;;;;;;;7306668;19;140615;-75
2023/06/24 04:37:53;;;;;;;4.65;3.83;;;;;;;;;;7306014;19;141277;-76
2023/06/24 04:40:20;;;;;;;4.38;3.60;;;;;;;;;;7304251;19;141260;-75
2023/06/24 04:42:47;;;;;;;4.57;3.97;;;;;;;;;;7305937;19;141887;-76
2023/06/24 04:45:14;;;;;;;4.38;3.90;;;;;;;;;;7305977;19;140598;-75
2023/06/24 04:47:41;;;;;;;4.47;3.72;;;;;;;;;;7305472;19;140552;-76
2023/06/24 04:50:12;;;;;;;4.68;4.15;;;;;;;;;;7305286;19;140719;-76
2023/06/24 04:52:39;;;;;;;4.28;3.60;;;;;;;;;;7305318;19;141030;-75
2023/06/24 04:55:06;;;;;;;3.42;3.10;;;;;;;;;;7304626;19;140412;-75
2023/06/24 04:57:36;;;;;;;3.78;3.38;;;;;;;;;;7306134;19;140963;-76
2023/06/24 05:00:04;;;;;;;4.13;3.63;;;;;;;;;;7304986;19;141025;-76
2023/06/24 05:02:31;;;;;;;4.63;3.47;;;;;;;;;;7304884;19;140636;-76
2023/06/24 05:04:58;;;;;;;4.45;3.60;;;;;;;;;;7305205;19;140540;-75
2023/06/24 05:07:26;;;;;;;4.47;3.63;;;;;;;;;;7306162;19;140613;-76
2023/06/24 05:09:53;;;;;;;4.03;3.63;;;;;;;;;;7304226;19;141444;-76
2023/06/24 05:12:20;;;;;;;4.53;3.67;;;;;;;;;;7304413;19;142803;-76
2023/06/24 05:14:52;;;;;;;5.15;3.88;;;;;;;;;;7304245;19;140730;-76
2023/06/24 05:17:19;;;;;;;4.22;3.50;;;;;;;;;;7304659;19;140574;-76
2023/06/24 05:19:46;;;;;;;5.07;3.90;;;;;;;;;;7303691;19;141546;-74
2023/06/24 05:22:13;;;;;;;3.80;3.40;;;;;;;;;;7304429;19;142795;-76
2023/06/24 05:24:41;;;;;;;4.05;3.45;;;;;;;;;;7304937;19;140707;-75
2023/06/24 05:27:08;;;;;;;3.97;3.60;;;;;;;;;;7301890;19;142555;-75
2023/06/24 05:29:35;;;;;;;4.50;3.70;;;;;;;;;;7304385;19;141007;-76
2023/06/24 05:32:03;;;;;;;3.80;3.50;;;;;;;;;;7303952;19;142095;-75
2023/06/24 05:34:30;;;;;;;3.92;3.47;;;;;;;;;;7303506;19;140520;-76
2023/06/24 05:36:58;;;;;;;5.18;3.70;;;;;;;;;;7304002;19;140716;-76
2023/06/24 05:39:25;;;;;;;3.95;3.50;;;;;;;;;;7303915;19;141082;-75
2023/06/24 05:41:52;;;;;;;3.80;3.40;;;;;;;;;;7303294;19;141887;-76
2023/06/24 05:44:19;;;;;;;3.78;3.38;;;;;;;;;;7304461;19;141011;-76
2023/06/24 05:46:46;;;;;;;4.05;3.40;;;;;;;;;;7303575;19;140638;-76
2023/06/24 05:49:13;;;;;;;3.65;3.33;;;;;;;;;;7302983;19;141381;-76
2023/06/24 05:51:40;;;;;;;4.05;3.65;;;;;;;;;;7302942;19;142345;-75
2023/06/24 05:54:07;;;;;;;3.30;3.00;;;;;;;;;;7304613;19;140391;-75
2023/06/24 05:56:36;;;;;;;4.07;2.97;;;;;;;;;;7302264;19;140678;-75
2023/06/24 05:59:05;;;;;;;5.20;3.50;;;;;;;;;;7303428;19;141042;-74
2023/06/24 06:01:32;;;;;;;3.28;2.97;;;;;;;;;;7303260;19;141948;-75
2023/06/24 06:03:59;;;;;;;3.85;3.38;;;;;;;;;;7302929;19;140458;-79
2023/06/24 06:06:27;;;;;;;5.20;4.10;;;;;;;;;;7302801;19;140695;-82
2023/06/24 06:08:54;;;;;;;6.80;4.50;;;;;;;;;;7303156;19;140880;-73
2023/06/24 06:11:21;;;;;;;6.22;5.03;;;;;;;;;;7301891;19;144006;-74
2023/06/24 06:13:48;;;;;;;6.22;4.78;;;;;;;;;;7302582;19;140423;-75
2023/06/24 06:16:15;;;;;;;8.27;5.70;;;;;;;;;;7302467;19;140811;-77
2023/06/24 06:18:42;;;;;;;7.32;5.30;;;;;;;;;;7302627;19;140828;-76
2023/06/24 06:21:09;;;;;;;8.73;5.20;;;;;;;;;;7302529;19;142378;-75
2023/06/24 06:23:36;;;;;;;7.18;5.30;;;;;;;;;;7302909;19;140532;-76
2023/06/24 06:26:05;;;;;;;6.78;4.75;;;;;;;;;;7302016;19;140486;-76
2023/06/24 06:28:32;;;;;;;6.40;5.40;;;;;;;;;;7302292;19;141630;-76
2023/06/24 06:30:59;;;;;;;7.20;5.35;;;;;;;;;;7301599;19;142153;-76
2023/06/24 06:33:26;;;;;;;7.38;4.65;;;;;;;;;;7299822;19;140888;-77
2023/06/24 06:35:53;;;;;;;6.50;5.18;;;;;;;;;;7302025;19;140580;-76
2023/06/24 06:38:20;;;;;;;5.55;4.93;;;;;;;;;;7300484;19;142898;-77
2023/06/24 06:40:48;;;;;;;5.35;4.85;;;;;;;;;;7300100;19;140666;-76
2023/06/24 06:43:15;;;;;;;5.85;4.70;;;;;;;;;;7300924;19;140414;-76
2023/06/24 06:45:42;;;;;;;5.72;4.82;;;;;;;;;;7301482;19;140960;-77
2023/06/24 06:48:09;;;;;;;4.65;4.15;;;;;;;;;;7300800;19;142072;-76
2023/06/24 06:50:36;;;;;;;5.13;4.50;;;;;;;;;;7300681;19;142702;-77
2023/06/24 06:53:03;;;;;;;4.93;4.43;;;;;;;;;;7301424;19;140532;-76
2023/06/24 06:55:30;;;;;;;6.10;4.57;;;;;;;;;;7300972;19;140698;-77
2023/06/24 06:57:57;;;;;;;5.28;4.50;;;;;;;;;;7300177;19;141142;-77
2023/06/24 07:00:24;;;;;;;6.47;4.45;;;;;;;;;;7300172;19;142090;-77
2023/06/24 07:02:51;;;;;;;6.28;4.50;;;;;;;;;;7301608;19;140542;-77
2023/06/24 07:05:22;;;;;;;5.28;4.47;;;;;;;;;;7299789;19;140716;-76
2023/06/24 07:07:50;;;;;;;4.78;4.18;;;;;;;;;;7299706;19;143331;-76
2023/06/24 07:10:19;;;;;;;5.00;4.20;;;;;;;;;;7300702;19;142446;-77
2023/06/24 07:12:46;;;;;;;5.22;4.65;;;;;;;;;;7300995;19;141172;-76
2023/06/24 07:15:14;;;;;;;4.50;4.10;;;;;;;;;;7300737;19;140438;-77
2023/06/24 07:17:41;;;;;;;4.80;4.18;;;;;;;;;;7301519;19;141567;-76
2023/06/24 07:20:09;;;;;;;4.43;3.70;;;;;;;;;;7300737;19;141857;-76
2023/06/24 07:22:38;;;;;;;4.13;3.70;;;;;;;;;;7300334;19;140693;-76
2023/06/24 07:25:05;;;;;;;5.40;3.90;;;;;;;;;;7300505;19;140738;-76
2023/06/24 07:27:33;;;;;;;5.05;4.00;;;;;;;;;;7300067;19;141841;-76
2023/06/24 07:30:00;;;;;;;4.97;4.35;;;;;;;;;;7300255;19;142532;-77
2023/06/24 07:32:27;;;;;;;4.68;4.18;;;;;;;;;;7300657;19;140653;-76
2023/06/24 07:34:54;;;;;;;4.38;3.97;;;;;;;;;;7300759;19;140547;-76
2023/06/24 07:37:21;;;;;;;4.25;3.85;;;;;;;;;;7300335;19;140904;-76
2023/06/24 07:39:53;;;;;;;4.32;3.90;;;;;;;;;;7300204;19;140794;-77
2023/06/24 07:42:20;;;;;;;4.45;4.05;;;;;;;;;;7299489;19;140523;-77
2023/06/24 07:44:48;;;;;;;4.47;3.85;;;;;;;;;;7299263;19;140615;-76
2023/06/24 07:47:16;;;;;;;4.38;3.97;;;;;;;;;;7300302;19;142014;-76
2023/06/24 07:49:44;;;;;;;5.30;4.10;;;;;;;;;;7299368;19;142896;-76
2023/06/24 07:52:11;;;;;;;5.22;4.45;;;;;;;;;;7300139;19;140476;-77
2023/06/24 07:54:38;;;;;;;4.00;3.67;;;;;;;;;;7299114;19;140782;-76
2023/06/24 07:57:05;;;;;;;4.25;3.70;;;;;;;;;;7298373;19;141119;-77
2023/06/24 07:59:32;;;;;;;4.43;4.03;;;;;;;;;;7299814;19;140669;-76
2023/06/24 08:01:59;;;;;;;4.60;4.03;;;;;;;;;;7300595;19;140441;-76
2023/06/24 08:04:26;;;;;;;4.47;4.07;;;;;;;;;;7299348;19;140612;-76
2023/06/24 08:06:53;;;;;;;5.30;4.13;;;;;;;;;;7299784;19;140499;-77
2023/06/24 08:09:21;;;;;;;5.30;4.18;;;;;;;;;;7299351;19;142703;-76
2023/06/24 08:11:48;;;;;;;4.78;4.05;;;;;;;;;;7298848;19;140445;-76
2023/06/24 08:14:15;;;;;;;4.22;3.83;;;;;;;;;;7299250;19;140566;-77
2023/06/24 08:16:42;;;;;;;4.97;3.97;;;;;;;;;;7299242;19;141842;-76
2023/06/24 08:19:09;;;;;;;5.20;4.32;;;;;;;;;;7299393;19;140867;-77
2023/06/24 08:21:37;;;;;;;4.25;3.85;;;;;;;;;;7299080;19;140667;-77
2023/06/24 08:24:05;;;;;;;4.63;4.00;;;;;;;;;;7299286;19;141010;-76
2023/06/24 08:26:32;;;;;;;4.90;3.95;;;;;;;;;;7297701;19;141558;-77
2023/06/24 08:28:59;;;;;;;5.07;4.20;;;;;;;;;;7298368;19;142084;-76
2023/06/24 08:31:29;;;;;;;;;;;;;;;;;;7298970;19;141735;-76
2023/06/24 08:33:58;;;;;;;4.30;3.90;;;;;;;;;;7298991;19;144904;-76
2023/06/24 08:36:27;;;;;;;4.22;3.78;;;;;;;;;;7298681;19;142089;-76
2023/06/24 08:38:54;;;;;;;4.63;4.13;;;;;;;;;;7297830;19;141976;-76
2023/06/24 08:41:22;;;;;;;4.10;3.70;;;;;;;;;;7298250;19;140891;-76
2023/06/24 08:43:49;;;;;;;;;;;;;;;;;;7299708;19;140568;-76
2023/06/24 08:46:16;;;;;;;4.50;3.60;;;;;;;;;;7297817;19;151886;-77
2023/06/24 08:48:44;;;;;;;5.07;4.38;;;;;;;;;;7296040;19;142334;-76
2023/06/24 08:51:14;;;;;;;4.75;4.30;;;;;;;;;;7296876;19;140810;-76
2023/06/24 08:53:43;;;;;;;4.00;3.58;;;;;;;;;;7297675;19;140470;-76
2023/06/24 08:56:10;;;;;;;4.20;3.60;;;;;;;;;;7302332;19;140952;-77
2023/06/24 08:58:37;;;;;;;4.10;3.70;;;;;;;;;;7304636;19;143122;-76
2023/06/24 09:01:06;;;;;;;4.38;3.78;;;;;;;;;;7304339;19;140723;-76
2023/06/24 09:03:33;;;;;;;4.32;3.50;;;;;;;;;;7304886;19;140500;-77
2023/06/24 09:06:00;;;;;;;4.10;3.70;;;;;;;;;;7304636;19;141236;-77
2023/06/24 09:08:27;;;;;;;4.82;4.40;;;;;;;;;;7302463;19;142808;-77
2023/06/24 09:10:57;;;;;;;4.60;4.20;;;;;;;;;;7303500;19;140611;-77
2023/06/24 09:13:27;;;;;;;4.13;3.72;;;;;;;;;;7303887;19;140557;-77
2023/06/24 09:15:57;;;;;;;4.70;3.95;;;;;;;;;;7303497;19;141718;-76
2023/06/24 09:18:31;;;;;;;4.03;3.63;;;;;;;;;;7304217;19;143249;-77
2023/06/24 09:20:58;;;;;;;3.95;3.55;;;;;;;;;;7304039;19;140627;-77
2023/06/24 09:23:26;;;;;;;4.28;3.63;;;;;;;;;;7304803;19;140696;-77
2023/06/24 09:25:55;;;;;;;;;;;;;;;;;;7303238;19;141785;-76
2023/06/24 09:28:26;;;;;;;3.90;3.45;;;;;;;;;;7303871;19;146460;-76
2023/06/24 09:31:09;;;;;;;4.40;3.90;;;;;;;;;;7304531;19;140772;-77
2023/06/24 09:33:46;;;;;;;4.45;3.95;;;;;;;;;;7304305;19;140903;-77
2023/06/24 09:36:14;;;;;;;4.38;3.78;;;;;;;;;;7303681;19;141177;-77
2023/06/24 09:38:42;;;;;;;4.45;3.63;;;;;;;;;;7304228;19;140719;-77
2023/06/24 09:41:09;;;;;;;4.15;3.75;;;;;;;;;;7304799;19;140785;-77
2023/06/24 09:43:42;;;;;;;4.10;3.70;;;;;;;;;;7303550;19;140607;-77
2023/06/24 09:46:09;;;;;;;4.22;3.53;;;;;;;;;;7304164;19;140863;-77
2023/06/24 09:48:36;;;;;;;4.78;4.20;;;;;;;;;;7304012;19;140718;-77
2023/06/24 09:51:04;;;;;;;4.07;3.50;;;;;;;;;;7303773;19;140546;-76
2023/06/24 09:53:35;;;;;;;4.25;3.60;;;;;;;;;;7303743;19;140692;-77
2023/06/24 09:56:06;;;;;;;4.05;3.65;;;;;;;;;;7302845;19;141953;-77
2023/06/24 09:58:35;;;;;;;4.78;3.30;;;;;;;;;;7300948;19;143015;-77
2023/06/24 10:01:04;;;;;;;4.38;3.67;;;;;;;;;;7303065;19;140835;-77
2023/06/24 10:03:32;;;;;;;4.00;3.50;;;;;;;;;;7301284;19;140651;-77
2023/06/24 10:06:03;;;;;;;4.65;3.40;;;;;;;;;;7301999;19;140974;-77
2023/06/24 10:08:30;;;;;;;4.45;3.63;;;;;;;;;;7302803;19;141934;-77
2023/06/24 10:10:58;;;;;;;4.35;3.58;;;;;;;;;;7302610;19;140554;-77
2023/06/24 10:13:26;;;;;;;4.65;3.50;;;;;;;;;;7302295;19;141502;-76
2023/06/24 10:15:53;;;;;;;4.55;4.13;;;;;;;;;;7302743;19;142182;-77
2023/06/24 10:18:34;;;;;;;4.10;3.70;;;;;;;;;;7302055;19;142777;-76
2023/06/24 10:21:02;;;;;;;3.88;3.53;;;;;;;;;;7302753;19;140560;-77
2023/06/24 10:23:41;;;;;;;4.15;3.50;;;;;;;;;;7302514;19;140857;-77
2023/06/24 10:26:21;;;;;;;3.90;3.38;;;;;;;;;;7302367;19;140844;-77
2023/06/24 10:29:06;;;;;;;3.92;3.45;;;;;;;;;;7301314;19;141419;-77
2023/06/24 10:31:40;;;;;;;4.05;3.35;;;;;;;;;;7301863;19;141066;-77
2023/06/24 10:34:19;;;;;;;3.42;3.13;;;;;;;;;;7302434;19;140705;-77
2023/06/24 10:36:55;;;;;;;4.10;3.22;;;;;;;;;;7302240;19;140617;-76
2023/06/24 10:39:35;;;;;;;4.05;3.65;;;;;;;;;;7301573;19;142780;-77
2023/06/24 10:42:21;;;;;;;3.70;3.40;;;;;;;;;;7301958;19;140463;-77
2023/06/24 10:44:48;;;;;;;3.70;3.30;;;;;;;;;;7301988;19;140733;-77
2023/06/24 10:47:15;;;;;;;3.90;3.50;;;;;;;;;;7301731;19;141200;-75
2023/06/24 10:49:42;;;;;;;4.05;3.45;;;;;;;;;;7301638;19;142468;-76
2023/06/24 10:52:10;;;;;;;4.03;3.63;;;;;;;;;;7299333;19;141575;-75
2023/06/24 10:54:37;;;;;;;3.53;3.22;;;;;;;;;;7301326;19;140519;-76
2023/06/24 10:57:04;;;;;;;3.90;3.45;;;;;;;;;;7300270;19;141774;-76
2023/06/24 10:59:35;;;;;;;3.42;3.13;;;;;;;;;;7300364;19;142737;-76
2023/06/24 11:02:02;;;;;;;3.38;3.08;;;;;;;;;;7300835;19;140521;-76
2023/06/24 11:04:29;;;;;;;3.78;3.38;;;;;;;;;;7300987;19;140622;-76
2023/06/24 11:06:57;;;;;;;4.13;3.53;;;;;;;;;;7300695;19;141222;-75
2023/06/24 11:09:24;;;;;;;3.30;3.00;;;;;;;;;;7299534;19;140721;-76
2023/06/24 11:11:52;;;;;;;4.00;3.58;;;;;;;;;;7300685;19;140422;-76
2023/06/24 11:14:22;;;;;;;3.80;3.30;;;;;;;;;;7298321;19;140535;-76
2023/06/24 11:16:49;;;;;;;4.15;3.15;;;;;;;;;;7299990;19;141125;-76
2023/06/24 11:19:16;;;;;;;3.33;3.03;;;;;;;;;;7298706;19;142139;-76
2023/06/24 11:21:44;;;;;;;3.65;3.22;;;;;;;;;;7300844;19;140539;-76
2023/06/24 11:24:11;;;;;;;3.53;3.22;;;;;;;;;;7301480;19;140736;-76
2023/06/24 11:26:38;;;;;;;3.20;2.90;;;;;;;;;;7300274;19;140886;-76
2023/06/24 11:29:09;;;;;;;3.60;3.30;;;;;;;;;;7298852;19;140775;-77
2023/06/24 11:31:37;;;;;;;3.85;3.38;;;;;;;;;;7299867;19;140491;-77
2023/06/24 11:34:04;;;;;;;4.15;3.45;;;;;;;;;;7300203;19;140867;-76
2023/06/24 11:36:33;;;;;;;3.58;3.22;;;;;;;;;;7300392;19;140470;-76
2023/06/24 11:39:00;;;;;;;3.55;3.25;;;;;;;;;;7297509;19;141941;-76
2023/06/24 11:41:27;;;;;;;3.15;2.85;;;;;;;;;;7299679;19;140718;-75
2023/06/24 11:43:57;;;;;;;3.42;3.00;;;;;;;;;;7300079;19;140663;-76
2023/06/24 11:46:25;;;;;;;3.55;3.10;;;;;;;;;;7299977;19;140422;-76
2023/06/24 11:48:53;;;;;;;3.55;2.90;;;;;;;;;;7297629;19;142107;-76
2023/06/24 11:51:23;;;;;;;3.60;3.03;;;;;;;;;;7301230;19;140655;-76
2023/06/24 11:53:50;;;;;;;3.00;2.80;;;;;;;;;;7299617;19;140551;-76
2023/06/24 11:56:17;;;;;;;3.42;3.00;;;;;;;;;;7298918;19;141485;-76
2023/06/24 11:58:45;;;;;;;3.58;3.17;;;;;;;;;;7299292;19;142048;-76
2023/06/24 12:01:12;;;;;;;3.33;2.95;;;;;;;;;;7300349;19;140624;-76
2023/06/24 12:03:41;;;;;;;3.30;3.00;;;;;;;;;;7298569;19;140562;-76
2023/06/24 12:06:08;;;;;;;3.35;2.70;;;;;;;;;;7298839;19;141159;-76
2023/06/24 12:08:35;;;;;;;2.78;2.58;;;;;;;;;;7298677;19;142052;-76
2023/06/24 12:11:17;;;;;;;3.40;3.10;;;;;;;;;;7299554;19;140706;-76
2023/06/24 12:13:44;;;;;;;3.50;3.13;;;;;;;;;;7296692;19;140627;-76
2023/06/24 12:16:11;;;;;;;3.42;3.05;;;;;;;;;;7298508;19;141476;-76
2023/06/24 12:18:38;;;;;;;3.30;3.00;;;;;;;;;;7298532;19;140998;-77
2023/06/24 12:21:05;;;;;;;3.90;3.17;;;;;;;;;;7298703;19;140831;-76
2023/06/24 12:23:32;;;;;;;3.10;2.80;;;;;;;;;;7299415;19;140773;-76
2023/06/24 12:26:05;;;;;;;3.00;2.80;;;;;;;;;;7297197;19;141385;-76
2023/06/24 12:28:32;;;;;;;3.00;2.70;;;;;;;;;;7297688;19;142204;-76
2023/06/24 12:31:02;;;;;;;3.05;2.75;;;;;;;;;;7302967;19;140700;-77
2023/06/24 12:33:32;;;;;;;3.33;3.03;;;;;;;;;;7306829;19;140751;-77
2023/06/24 12:35:59;;;;;;;3.38;3.00;;;;;;;;;;7305412;19;140764;-77
2023/06/24 12:38:26;;;;;;;3.15;2.83;;;;;;;;;;7305314;19;142491;-77
2023/06/24 12:40:53;;;;;;;;;;;;;;;;;;7305073;19;140545;-77
2023/06/24 12:43:20;;;;;;;3.70;3.00;;;;;;;;;;7305277;19;143566;-77
2023/06/24 12:45:48;;;;;;;2.97;2.67;;;;;;;;;;7305919;19;141441;-77
2023/06/24 12:48:15;;;;;;;2.85;2.58;;;;;;;;;;7305962;19;141954;-77
2023/06/24 12:50:42;;;;;;;2.80;2.40;;;;;;;;;;7306155;19;140464;-77
2023/06/24 12:53:14;;;;;;;3.03;2.72;;;;;;;;;;7306001;19;140427;-77
2023/06/24 12:55:40;;;;;;;;;;;;;;;;;;7305094;19;140566;-76
2023/06/24 12:58:07;;;;;;;2.95;2.63;;;;;;;;;;7304072;19;153046;-76
2023/06/24 13:00:35;;;;;;;2.95;2.67;;;;;;;;;;7305918;19;140678;-76
2023/06/24 13:03:02;;;;;;;2.97;2.67;;;;;;;;;;7306322;19;140470;-77
2023/06/24 13:05:29;;;;;;;3.13;2.70;;;;;;;;;;7305141;19;141187;-75
2023/06/24 13:07:56;;;;;;;2.75;2.50;;;;;;;;;;7305949;19;140657;-76
2023/06/24 13:10:23;;;;;;;3.22;2.78;;;;;;;;;;7305435;19;140710;-76
2023/06/24 13:12:50;;;;;;;2.90;2.60;;;;;;;;;;7305149;19;140421;-76
2023/06/24 13:15:18;;;;;;;2.83;2.50;;;;;;;;;;7304670;19;141017;-76
2023/06/24 13:17:45;;;;;;;2.97;2.55;;;;;;;;;;7305268;19;142683;-76
2023/06/24 13:20:12;;;;;;;3.00;2.70;;;;;;;;;;7304874;19;140567;-76
2023/06/24 13:22:39;;;;;;;2.70;2.50;;;;;;;;;;7305290;19;140691;-75
2023/06/24 13:25:06;;;;;;;2.80;2.60;;;;;;;;;;7304421;19;141432;-76
2023/06/24 13:27:33;;;;;;;3.28;2.78;;;;;;;;;;7303342;19;141947;-75
2023/06/24 13:30:03;;;;;;;2.80;2.50;;;;;;;;;;7305262;19;140580;-75
2023/06/24 13:32:30;;;;;;;3.00;2.70;;;;;;;;;;7304339;19;140682;-75
2023/06/24 13:34:57;;;;;;;2.53;2.33;;;;;;;;;;7303972;19;141080;-75
2023/06/24 13:37:25;;;;;;;2.67;2.42;;;;;;;;;;7304689;19;142795;-75
2023/06/24 13:39:52;;;;;;;3.22;2.53;;;;;;;;;;7304578;19;140719;-75
2023/06/24 13:42:19;;;;;;;2.58;2.35;;;;;;;;;;7303732;19;140719;-75
2023/06/24 13:44:46;;;;;;;2.83;2.60;;;;;;;;;;7303839;19;141339;-75
2023/06/24 13:47:13;;;;;;;3.03;2.67;;;;;;;;;;7305125;19;143152;-75
2023/06/24 13:49:40;;;;;;;2.50;2.30;;;;;;;;;;7304620;19;140692;-75
2023/06/24 13:52:07;;;;;;;2.55;2.35;;;;;;;;;;7304429;19;140662;-75
2023/06/24 13:54:35;;;;;;;2.80;2.50;;;;;;;;;;7302210;19;141714;-76
2023/06/24 13:57:02;;;;;;;2.78;2.40;;;;;;;;;;7303753;19;140818;-76
2023/06/24 13:59:29;;;;;;;2.80;2.42;;;;;;;;;;7303887;19;141210;-75
2023/06/24 14:01:56;;;;;;;3.13;2.47;;;;;;;;;;7304000;19;140830;-75
2023/06/24 14:04:23;;;;;;;2.85;2.38;;;;;;;;;;7303097;19;140962;-76
2023/06/24 14:06:50;;;;;;;2.67;2.47;;;;;;;;;;7303042;19;141768;-74
2023/06/24 14:09:17;;;;;;;2.65;2.25;;;;;;;;;;7303424;19;141443;-75
2023/06/24 14:11:44;;;;;;;3.55;2.60;;;;;;;;;;7303671;19;140908;-77
2023/06/24 14:14:12;;;;;;;2.85;2.55;;;;;;;;;;7303715;19;141111;-77
2023/06/24 14:16:39;;;;;;;3.38;2.55;;;;;;;;;;7304463;19;142028;-77
2023/06/24 14:19:06;;;;;;;3.22;2.75;;;;;;;;;;7307063;19;141008;-74
2023/06/24 14:21:35;;;;;;;2.67;2.45;;;;;;;;;;7303791;19;141566;-76
2023/06/24 14:24:03;;;;;;;3.08;2.78;;;;;;;;;;7302726;19;140934;-72
2023/06/24 14:26:42;;;;;;;3.78;2.72;;;;;;;;;;7303423;19;142087;-73
2023/06/24 14:29:11;;;;;;;2.90;2.60;;;;;;;;;;7301924;19;140549;-73
2023/06/24 14:31:38;;;;;;;2.60;2.40;;;;;;;;;;7302891;19;140706;-73
2023/06/24 14:34:05;;;;;;;3.70;2.88;;;;;;;;;;7302850;19;140800;-73
2023/06/24 14:36:32;;;;;;;2.95;2.63;;;;;;;;;;7302312;19;142696;-73
2023/06/24 14:38:59;;;;;;;3.15;2.50;;;;;;;;;;7302827;19;140580;-73